createdAt,value
2018-11-13T00:00:23.864Z,39.73
2018-11-13T00:02:53.715Z,37.00
2018-11-13T00:05:23.597Z,42.67
2018-11-13T00:07:52.789Z,38.97
2018-11-13T00:10:22.028Z,39.27
2018-11-13T00:12:51.162Z,43.87
2018-11-13T00:15:20.371Z,39.60
2018-11-13T00:17:49.536Z,37.07
2018-11-13T00:20:19.424Z,50.57
2018-11-13T00:22:48.620Z,42.53
2018-11-13T00:25:18.893Z,40.43
2018-11-13T00:27:48.109Z,40.90
2018-11-13T00:30:19.814Z,38.77
2018-11-13T00:32:49.470Z,37.13
2018-11-13T00:35:19.334Z,37.77
2018-11-13T00:37:49.303Z,33.23
2018-11-13T00:40:19.144Z,29.40
2018-11-13T00:42:48.718Z,30.43
2018-11-13T00:45:18.008Z,31.80
2018-11-13T00:47:47.129Z,31.77
2018-11-13T00:50:17.581Z,30.27
2018-11-13T00:52:47.212Z,30.87
2018-11-13T00:55:16.751Z,27.67
2018-11-13T00:57:46.218Z,30.53
2018-11-13T01:00:17.242Z,31.53
2018-11-13T01:02:46.570Z,31.80
2018-11-13T01:05:17.123Z,33.43
2018-11-13T01:07:47.330Z,29.53
2018-11-13T01:10:17.571Z,31.03
2018-11-13T01:12:47.287Z,29.20
2018-11-13T01:15:17.746Z,29.90
2018-11-13T01:17:47.527Z,27.50
2018-11-13T01:20:17.444Z,28.20
2018-11-13T01:22:46.644Z,29.97
2018-11-13T01:25:16.636Z,29.73
2018-11-13T01:27:46.129Z,27.80
2018-11-13T01:30:16.082Z,35.87
2018-11-13T01:32:45.828Z,37.37
2018-11-13T01:35:16.145Z,26.03
2018-11-13T01:37:45.382Z,32.13
2018-11-13T01:40:15.998Z,41.97
2018-11-13T01:42:45.416Z,35.87
2018-11-13T01:45:16.019Z,29.83
2018-11-13T01:47:45.219Z,36.33
2018-11-13T01:50:14.680Z,42.80
2018-11-13T01:52:43.857Z,39.97
2018-11-13T01:55:14.344Z,34.77
2018-11-13T01:57:43.545Z,37.33
2018-11-13T02:00:20.848Z,40.20
2018-11-13T02:02:51.212Z,44.10
2018-11-13T02:05:21.590Z,38.30
2018-11-13T02:07:51.311Z,37.03
2018-11-13T02:10:20.860Z,33.43
2018-11-13T02:12:50.511Z,36.63
2018-11-13T02:15:20.558Z,27.57
2018-11-13T02:17:49.804Z,32.50
2018-11-13T02:20:20.353Z,36.17
2018-11-13T02:22:49.619Z,40.30
2018-11-13T02:25:19.790Z,28.10
2018-11-13T02:27:49.348Z,29.03
2018-11-13T02:30:19.859Z,26.50
2018-11-13T02:32:49.508Z,35.47
2018-11-13T02:35:18.976Z,35.67
2018-11-13T02:37:48.219Z,33.90
2018-11-13T02:40:17.426Z,32.07
2018-11-13T02:42:46.647Z,38.67
2018-11-13T02:45:18.485Z,39.63
2018-11-13T02:47:47.726Z,28.50
2018-11-13T02:50:18.164Z,30.97
2018-11-13T02:52:47.378Z,29.70
2018-11-13T02:55:16.664Z,34.43
2018-11-13T02:57:46.438Z,29.30
2018-11-13T03:00:20.517Z,28.07
2018-11-13T03:02:49.925Z,30.97
2018-11-13T03:05:20.328Z,27.30
2018-11-13T03:07:49.616Z,25.67
2018-11-13T03:10:20.183Z,34.10
2018-11-13T03:12:49.389Z,28.87
2018-11-13T03:15:19.916Z,31.47
2018-11-13T03:17:49.114Z,25.73
2018-11-13T03:20:19.444Z,29.47
2018-11-13T03:22:49.198Z,24.47
2018-11-13T03:25:19.687Z,24.33
2018-11-13T03:27:48.879Z,24.57
2018-11-13T03:30:20.538Z,33.97
2018-11-13T03:32:54.320Z,20.70
2018-11-13T03:35:23.730Z,21.60
2018-11-13T03:37:53.072Z,24.83
2018-11-13T03:40:22.345Z,22.73
2018-11-13T03:42:51.793Z,24.70
2018-11-13T03:45:21.378Z,23.63
2018-11-13T03:47:50.524Z,19.73
2018-11-13T03:50:20.897Z,20.13
2018-11-13T03:52:50.065Z,22.60
2018-11-13T03:55:19.996Z,23.93
2018-11-13T03:57:49.862Z,23.27
2018-11-13T04:00:20.304Z,18.33
2018-11-13T04:02:49.593Z,20.33
2018-11-13T04:05:19.824Z,25.27
2018-11-13T04:07:53.152Z,23.60
2018-11-13T04:10:22.819Z,21.77
2018-11-13T04:12:52.014Z,19.43
2018-11-13T04:15:23.364Z,18.87
2018-11-13T04:17:52.552Z,24.13
2018-11-13T04:20:22.535Z,20.10
2018-11-13T04:22:51.704Z,20.00
2018-11-13T04:25:20.898Z,22.67
2018-11-13T04:27:50.078Z,17.23
2018-11-13T04:30:19.697Z,23.90
2018-11-13T04:32:48.870Z,19.80
2018-11-13T04:35:18.702Z,21.87
2018-11-13T04:37:47.919Z,18.67
2018-11-13T04:40:18.962Z,22.97
2018-11-13T04:42:50.198Z,26.33
2018-11-13T04:45:20.648Z,16.93
2018-11-13T04:47:50.330Z,24.40
2018-11-13T04:50:20.653Z,20.77
2018-11-13T04:52:49.903Z,26.27
2018-11-13T04:55:19.722Z,23.33
2018-11-13T04:57:49.867Z,23.80
2018-11-13T05:00:20.362Z,25.63
2018-11-13T05:02:49.601Z,18.80
2018-11-13T05:05:19.544Z,25.60
2018-11-13T05:07:49.896Z,25.07
2018-11-13T05:10:19.156Z,28.20
2018-11-13T05:12:48.900Z,25.17
2018-11-13T05:15:18.159Z,22.77
2018-11-13T05:17:47.827Z,23.60
2018-11-13T05:20:17.770Z,20.03
2018-11-13T05:22:46.985Z,30.70
2018-11-13T05:25:17.401Z,26.73
2018-11-13T05:27:46.566Z,21.60
2018-11-13T05:30:17.095Z,23.70
2018-11-13T05:32:46.196Z,21.60
2018-11-13T05:35:16.518Z,26.03
2018-11-13T05:37:46.199Z,23.70
2018-11-13T05:40:17.157Z,24.10
2018-11-13T05:42:46.350Z,25.20
2018-11-13T05:45:16.907Z,23.17
2018-11-13T05:47:46.094Z,21.90
2018-11-13T05:50:16.267Z,25.17
2018-11-13T05:52:46.543Z,23.53
2018-11-13T05:55:16.189Z,26.30
2018-11-13T05:57:45.386Z,28.63
2018-11-13T06:00:17.755Z,27.97
2018-11-13T06:02:46.935Z,25.13
2018-11-13T06:05:16.170Z,22.07
2018-11-13T06:07:45.362Z,27.67
2018-11-13T06:10:14.664Z,26.83
2018-11-13T06:12:43.879Z,19.60
2018-11-13T06:15:13.025Z,24.47
2018-11-13T06:17:42.222Z,23.70
2018-11-13T06:20:12.849Z,20.53
2018-11-13T06:22:42.129Z,20.87
2018-11-13T06:25:13.079Z,25.80
2018-11-13T06:27:43.480Z,26.57
2018-11-13T06:30:18.314Z,22.80
2018-11-13T06:32:48.048Z,24.23
2018-11-13T06:35:17.196Z,25.60
2018-11-13T06:37:46.458Z,25.13
2018-11-13T06:40:15.638Z,24.50
2018-11-13T06:42:44.871Z,22.87
2018-11-13T06:45:18.247Z,26.67
2018-11-13T06:47:47.911Z,21.53
2018-11-13T06:50:17.062Z,24.93
2018-11-13T06:52:47.053Z,25.17
2018-11-13T06:55:24.555Z,22.50
2018-11-13T06:57:53.795Z,24.83
2018-11-13T07:00:22.989Z,17.17
2018-11-13T07:02:52.244Z,22.33
2018-11-13T07:05:21.397Z,22.17
2018-11-13T07:07:50.498Z,19.70
2018-11-13T07:10:20.958Z,23.67
2018-11-13T07:12:50.982Z,22.47
2018-11-13T07:15:21.456Z,22.70
2018-11-13T07:17:51.916Z,18.37
2018-11-13T07:20:22.367Z,19.80
2018-11-13T07:22:51.611Z,21.53
2018-11-13T07:25:20.970Z,20.17
2018-11-13T07:27:50.253Z,19.23
2018-11-13T07:30:20.206Z,20.20
2018-11-13T07:32:49.405Z,19.73
2018-11-13T07:35:19.520Z,24.23
2018-11-13T07:37:51.367Z,23.73
2018-11-13T07:40:20.804Z,21.43
2018-11-13T07:42:49.989Z,21.97
2018-11-13T07:45:19.472Z,16.47
2018-11-13T07:47:49.011Z,19.43
2018-11-13T07:50:18.168Z,20.70
2018-11-13T07:52:47.441Z,21.00
2018-11-13T07:55:17.282Z,21.03
2018-11-13T07:57:46.530Z,22.13
2018-11-13T08:00:17.793Z,22.50
2018-11-13T08:02:49.107Z,26.37
2018-11-13T08:05:18.220Z,23.43
2018-11-13T08:07:47.432Z,17.53
2018-11-13T08:10:16.733Z,18.47
2018-11-13T08:12:46.223Z,22.67
2018-11-13T08:15:16.867Z,21.53
2018-11-13T08:17:46.177Z,22.43
2018-11-13T08:20:16.356Z,20.67
2018-11-13T08:22:45.739Z,22.10
2018-11-13T08:25:15.060Z,19.87
2018-11-13T08:27:44.343Z,16.80
2018-11-13T08:30:16.311Z,19.30
2018-11-13T08:32:46.224Z,15.77
2018-11-13T08:35:15.764Z,17.03
2018-11-13T08:37:44.956Z,16.40
2018-11-13T08:40:15.423Z,17.20
2018-11-13T08:42:45.403Z,16.30
2018-11-13T08:45:15.156Z,17.23
2018-11-13T08:47:44.357Z,17.83
2018-11-13T08:50:14.297Z,17.70
2018-11-13T08:52:44.279Z,13.50
2018-11-13T08:55:22.452Z,16.90
2018-11-13T08:57:51.787Z,17.33
2018-11-13T09:00:20.895Z,17.30
2018-11-13T09:02:50.099Z,15.77
2018-11-13T09:05:19.321Z,17.80
2018-11-13T09:07:48.450Z,14.83
2018-11-13T09:10:18.774Z,15.00
2018-11-13T09:12:48.314Z,13.50
2018-11-13T09:15:18.719Z,14.63
2018-11-13T09:17:47.847Z,16.17
2018-11-13T09:20:18.332Z,15.97
2018-11-13T09:22:47.492Z,16.53
2018-11-13T09:25:18.092Z,13.67
2018-11-13T09:27:47.292Z,16.37
2018-11-13T09:30:19.091Z,14.90
2018-11-13T09:32:48.551Z,17.00
2018-11-13T09:35:18.413Z,18.20
2018-11-13T09:37:47.668Z,17.10
2018-11-13T09:40:18.321Z,16.03
2018-11-13T09:42:48.669Z,16.43
2018-11-13T09:45:18.206Z,16.37
2018-11-13T09:47:47.462Z,15.93
2018-11-13T09:50:17.731Z,17.70
2018-11-13T09:52:48.132Z,15.20
2018-11-13T09:55:18.935Z,16.63
2018-11-13T09:57:48.280Z,15.60
2018-11-13T10:00:19.705Z,13.73
2018-11-13T10:02:50.653Z,14.70
2018-11-13T10:05:20.460Z,14.90
2018-11-13T10:07:50.113Z,14.60
2018-11-13T10:10:19.319Z,12.13
2018-11-13T10:12:48.897Z,12.77
2018-11-13T10:15:22.518Z,15.17
2018-11-13T10:17:51.878Z,13.60
2018-11-13T10:20:20.952Z,12.13
2018-11-13T10:22:51.496Z,13.63
2018-11-13T10:25:20.769Z,14.23
2018-11-13T10:27:56.277Z,12.20
2018-11-13T10:30:26.056Z,16.07
2018-11-13T10:32:55.532Z,14.07
2018-11-13T10:35:25.743Z,13.80
2018-11-13T10:37:54.904Z,13.17
2018-11-13T10:40:24.437Z,13.07
2018-11-13T10:42:53.932Z,13.50
2018-11-13T10:45:25.305Z,9.50
2018-11-13T10:47:54.567Z,8.93
2018-11-13T10:50:24.931Z,10.67
2018-11-13T10:52:54.123Z,8.97
2018-11-13T10:55:23.297Z,9.23
2018-11-13T10:57:52.472Z,8.73
2018-11-13T11:00:27.004Z,5.13
2018-11-13T11:03:01.309Z,6.17
2018-11-13T11:08:26.271Z,5.00
2018-11-13T11:10:55.485Z,4.53
2018-11-13T11:13:24.743Z,4.07
2018-11-13T11:15:54.709Z,4.93
2018-11-13T11:18:23.873Z,4.73
2018-11-13T11:20:53.030Z,4.47
2018-11-13T11:23:22.245Z,4.07
2018-11-13T11:25:51.411Z,5.17
2018-11-13T11:28:20.600Z,4.50
2018-11-13T11:30:49.741Z,4.20
2018-11-13T11:33:18.831Z,4.20
2018-11-13T11:35:48.071Z,4.43
2018-11-13T11:38:17.183Z,4.20
2018-11-13T11:40:46.247Z,4.40
2018-11-13T11:43:15.474Z,5.10
2018-11-13T11:45:44.552Z,6.43
2018-11-13T11:48:13.712Z,4.47
2018-11-13T11:50:42.903Z,5.43
2018-11-13T11:53:12.065Z,6.00
2018-11-13T11:55:41.181Z,7.80
2018-11-13T11:58:10.283Z,7.00
2018-11-13T12:00:39.557Z,7.10
2018-11-13T12:03:08.709Z,6.33
2018-11-13T12:05:37.876Z,6.57
2018-11-13T12:08:07.058Z,5.63
2018-11-13T12:10:36.221Z,7.23
2018-11-13T12:13:05.505Z,6.20
2018-11-13T12:15:34.668Z,6.77
2018-11-13T12:18:03.814Z,8.20
2018-11-13T12:20:32.903Z,7.03
2018-11-13T12:23:02.119Z,7.27
2018-11-13T12:25:31.267Z,6.27
2018-11-13T12:28:00.494Z,5.90
2018-11-13T12:30:29.663Z,7.80
2018-11-13T12:32:58.843Z,5.97
2018-11-13T12:35:28.005Z,5.93
2018-11-13T12:37:57.105Z,7.23
2018-11-13T12:40:26.398Z,5.70
2018-11-13T12:42:55.502Z,5.77
2018-11-13T12:45:24.571Z,5.47
2018-11-13T12:47:53.786Z,5.93
2018-11-13T12:50:22.950Z,6.00
2018-11-13T12:52:52.066Z,6.43
2018-11-13T12:55:24.045Z,6.20
2018-11-13T12:57:53.144Z,7.83
2018-11-13T13:00:24.027Z,6.13
2018-11-13T13:02:53.336Z,4.70
2018-11-13T13:05:22.552Z,5.43
2018-11-13T13:07:51.661Z,6.70
2018-11-13T13:10:21.568Z,6.47
2018-11-13T13:12:50.673Z,4.57
2018-11-13T13:15:20.363Z,7.07
2018-11-13T13:17:49.602Z,7.07
2018-11-13T13:20:23.144Z,5.63
2018-11-13T13:22:52.671Z,4.97
2018-11-13T13:25:23.009Z,5.87
2018-11-13T13:27:52.217Z,6.43
2018-11-13T13:30:22.692Z,6.20
2018-11-13T13:32:52.197Z,6.90
2018-11-13T13:35:40.229Z,5.63
2018-11-13T13:38:09.949Z,6.37
2018-11-13T13:40:40.093Z,7.53
2018-11-13T13:43:10.327Z,7.77
2018-11-13T13:45:40.346Z,10.87
2018-11-13T13:48:09.532Z,7.30
2018-11-13T13:50:39.108Z,11.13
2018-11-13T13:53:09.291Z,6.93
2018-11-13T13:55:38.487Z,6.90
2018-11-13T13:58:07.726Z,6.30
2018-11-13T14:00:37.359Z,5.40
2018-11-13T14:03:07.855Z,6.87
2018-11-13T14:05:37.115Z,6.67
2018-11-13T14:08:06.940Z,5.90
2018-11-13T14:10:36.107Z,6.40
2018-11-13T14:13:05.376Z,5.93
2018-11-13T14:15:34.692Z,6.67
2018-11-13T14:18:03.784Z,6.70
2018-11-13T14:20:32.883Z,6.00
2018-11-13T14:23:02.083Z,7.23
2018-11-13T14:25:31.394Z,7.07
2018-11-13T14:28:00.684Z,6.13
2018-11-13T14:30:31.063Z,7.93
2018-11-13T14:33:01.661Z,6.80
2018-11-13T14:35:30.917Z,7.63
2018-11-13T14:38:00.495Z,6.97
2018-11-13T14:40:40.634Z,6.37
2018-11-13T14:43:10.152Z,6.13
2018-11-13T14:45:39.292Z,8.33
2018-11-13T14:48:09.189Z,7.23
2018-11-13T14:50:38.736Z,6.53
2018-11-13T14:53:08.636Z,6.67
2018-11-13T14:55:39.092Z,7.33
2018-11-13T14:58:09.462Z,9.40
2018-11-13T15:00:39.130Z,8.80
2018-11-13T15:03:09.916Z,7.10
2018-11-13T15:05:43.921Z,7.20
2018-11-13T15:08:13.436Z,8.40
2018-11-13T15:10:51.702Z,7.60
2018-11-13T15:13:21.759Z,7.00
2018-11-13T15:15:50.924Z,6.80
2018-11-13T15:18:20.175Z,8.23
2018-11-13T15:20:50.214Z,7.73
2018-11-13T15:23:19.428Z,7.07
2018-11-13T15:25:48.546Z,8.47
2018-11-13T15:28:17.749Z,10.03
2018-11-13T15:30:48.344Z,10.27
2018-11-13T15:33:20.851Z,7.03
2018-11-13T15:35:50.002Z,8.17
2018-11-13T15:38:19.320Z,7.57
2018-11-13T15:40:48.484Z,9.70
2018-11-13T15:43:17.671Z,9.93
2018-11-13T15:45:46.808Z,8.20
2018-11-13T15:48:16.417Z,9.63
2018-11-13T15:50:45.568Z,8.50
2018-11-13T15:53:14.661Z,10.37
2018-11-13T15:55:43.959Z,8.33
2018-11-13T15:58:13.160Z,12.10
2018-11-13T16:00:43.034Z,11.07
2018-11-13T16:03:17.051Z,13.33
2018-11-13T16:05:48.362Z,12.23
2018-11-13T16:08:17.594Z,11.90
2018-11-13T16:10:46.803Z,13.00
2018-11-13T16:13:15.979Z,10.63
2018-11-13T16:15:45.606Z,9.17
2018-11-13T16:18:16.226Z,10.80
2018-11-13T16:20:45.397Z,12.10
2018-11-13T16:23:14.635Z,11.50
2018-11-13T16:25:43.800Z,10.77
2018-11-13T16:28:13.096Z,11.83
2018-11-13T16:30:42.409Z,10.60
2018-11-13T16:33:11.534Z,9.20
2018-11-13T16:35:40.672Z,11.13
2018-11-13T16:38:11.172Z,9.10
2018-11-13T16:40:41.130Z,14.77
2018-11-13T16:43:09.553Z,11.73
2018-11-13T16:45:38.772Z,10.63
2018-11-13T16:48:08.152Z,14.07
2018-11-13T16:50:38.595Z,12.87
2018-11-13T16:53:07.948Z,11.93
2018-11-13T16:55:42.205Z,10.40
2018-11-13T16:58:12.837Z,10.73
2018-11-13T17:00:42.038Z,11.07
2018-11-13T17:03:11.177Z,13.97
2018-11-13T17:05:40.615Z,12.33
2018-11-13T17:08:09.729Z,12.10
2018-11-13T17:10:40.775Z,13.07
2018-11-13T17:13:10.114Z,11.07
2018-11-13T17:15:39.428Z,11.47
2018-11-13T17:18:08.737Z,11.43
2018-11-13T17:20:37.978Z,14.20
2018-11-13T17:23:07.243Z,11.47
2018-11-13T17:25:37.943Z,12.07
2018-11-13T17:28:07.680Z,10.07
2018-11-13T17:30:37.165Z,10.27
2018-11-13T17:33:07.938Z,9.90
2018-11-13T17:35:37.199Z,7.73
2018-11-13T17:38:07.034Z,9.63
2018-11-13T17:40:36.932Z,10.20
2018-11-13T17:43:07.211Z,8.13
2018-11-13T17:45:37.764Z,8.57
2018-11-13T17:48:08.228Z,10.30
2018-11-13T17:50:38.521Z,6.97
2018-11-13T17:53:08.599Z,5.23
2018-11-13T17:55:37.832Z,5.00
2018-11-13T17:58:10.383Z,6.50
2018-11-13T18:00:40.898Z,4.70
2018-11-13T18:03:12.538Z,4.80
2018-11-13T18:05:42.243Z,8.60
2018-11-13T18:08:12.034Z,3.97
2018-11-13T18:10:42.321Z,3.57
2018-11-13T18:13:11.595Z,4.07
2018-11-13T18:15:40.781Z,3.80
2018-11-13T18:18:10.741Z,3.73
2018-11-13T18:20:40.919Z,4.77
2018-11-13T18:23:10.558Z,6.30
2018-11-13T18:25:39.711Z,7.37
2018-11-13T18:28:09.247Z,5.37
2018-11-13T18:30:38.911Z,5.90
2018-11-13T18:33:08.643Z,6.40
2018-11-13T18:35:38.838Z,5.87
2018-11-13T18:38:09.620Z,7.43
2018-11-13T18:40:38.898Z,8.13
2018-11-13T18:43:08.239Z,6.60
2018-11-13T18:45:38.910Z,11.13
2018-11-13T18:48:08.163Z,8.90
2018-11-13T18:50:45.257Z,10.80
2018-11-13T18:53:14.605Z,10.67
2018-11-13T18:55:43.857Z,8.73
2018-11-13T18:58:13.108Z,8.93
2018-11-13T19:00:42.719Z,11.63
2018-11-13T19:03:13.013Z,9.17
2018-11-13T19:05:42.304Z,8.07
2018-11-13T19:08:11.639Z,10.77
2018-11-13T19:10:47.494Z,12.57
2018-11-13T19:13:18.623Z,10.50
2018-11-13T19:15:50.884Z,10.03
2018-11-13T19:18:20.982Z,11.90
2018-11-13T19:20:50.641Z,11.20
2018-11-13T19:23:20.647Z,12.87
2018-11-13T19:25:50.424Z,13.57
2018-11-13T19:28:19.869Z,11.40
2018-11-13T19:30:49.564Z,13.87
2018-11-13T19:33:19.247Z,11.97
2018-11-13T19:35:48.921Z,13.77
2018-11-13T19:38:18.459Z,12.07
2018-11-13T19:40:48.684Z,15.20
2018-11-13T19:43:18.364Z,14.20
2018-11-13T19:45:47.957Z,13.07
2018-11-13T19:48:17.428Z,13.43
2018-11-13T19:50:46.975Z,13.40
2018-11-13T19:53:16.530Z,13.07
2018-11-13T19:55:46.089Z,12.53
2018-11-13T19:58:15.663Z,13.87
2018-11-13T20:00:45.212Z,14.73
2018-11-13T20:03:14.837Z,13.73
2018-11-13T20:05:45.351Z,12.33
2018-11-13T20:08:14.927Z,14.23
2018-11-13T20:10:44.498Z,13.93
2018-11-13T20:13:14.068Z,13.30
2018-11-13T20:15:43.606Z,13.97
2018-11-13T20:18:13.243Z,12.27
2018-11-13T20:20:43.808Z,12.63
2018-11-13T20:23:13.475Z,13.10
2018-11-13T20:25:43.091Z,12.40
2018-11-13T20:28:12.726Z,10.23
2018-11-13T20:30:43.328Z,12.03
2018-11-13T20:33:13.104Z,11.20
2018-11-13T20:35:42.738Z,9.50
2018-11-13T20:38:12.448Z,11.00
2018-11-13T20:40:42.034Z,9.13
2018-11-13T20:43:12.567Z,8.50
2018-11-13T20:45:41.994Z,7.53
2018-11-13T20:48:11.337Z,7.00
2018-11-13T20:50:40.861Z,6.30
2018-11-13T20:53:10.057Z,6.93
2018-11-13T20:55:39.309Z,6.60
2018-11-13T20:58:08.631Z,5.27
2018-11-13T21:00:38.152Z,6.23
2018-11-13T21:03:07.910Z,5.83
2018-11-13T21:05:37.128Z,4.97
2018-11-13T21:08:06.587Z,8.13
2018-11-13T21:10:37.459Z,4.17
2018-11-13T21:13:07.225Z,4.60
2018-11-13T21:15:36.456Z,4.97
2018-11-13T21:18:05.876Z,4.83
2018-11-13T21:20:35.069Z,4.30
2018-11-13T21:23:04.335Z,4.43
2018-11-13T21:25:33.500Z,5.50
2018-11-13T21:28:03.149Z,4.83
2018-11-13T21:30:32.353Z,6.00
2018-11-13T21:33:02.096Z,5.57
2018-11-13T21:35:31.305Z,4.17
2018-11-13T21:38:00.431Z,4.10
2018-11-13T21:40:29.711Z,4.47
2018-11-13T21:42:59.084Z,5.47
2018-11-13T21:45:29.132Z,5.23
2018-11-13T21:47:58.297Z,5.50
2018-11-13T21:50:28.763Z,5.17
2018-11-13T21:52:57.923Z,5.57
2018-11-13T21:55:28.134Z,5.00
2018-11-13T21:57:57.283Z,3.43
2018-11-13T22:00:30.164Z,4.97
2018-11-13T22:03:02.469Z,5.77
2018-11-13T22:05:32.330Z,5.47
2018-11-13T22:08:01.511Z,6.07
2018-11-13T22:10:30.671Z,6.50
2018-11-13T22:12:59.804Z,6.67
2018-11-13T22:15:29.770Z,8.40
2018-11-13T22:17:58.992Z,7.57
2018-11-13T22:20:28.084Z,10.53
2018-11-13T22:22:58.365Z,9.57
2018-11-13T22:25:27.793Z,9.70
2018-11-13T22:27:58.126Z,7.63
2018-11-13T22:30:29.334Z,8.93
2018-11-13T22:32:58.407Z,9.23
2018-11-13T22:35:27.558Z,9.90
2018-11-13T22:37:56.816Z,10.57
2018-11-13T22:40:27.361Z,10.07
2018-11-13T22:42:57.010Z,11.27
2018-11-13T22:45:27.405Z,11.50
2018-11-13T22:47:57.021Z,13.43
2018-11-13T22:50:32.834Z,7.63
2018-11-13T22:53:02.091Z,8.17
2018-11-13T22:55:31.254Z,13.17
2018-11-13T22:58:01.347Z,12.20
2018-11-13T23:00:42.843Z,14.70
2018-11-13T23:03:13.538Z,13.27
2018-11-13T23:05:43.426Z,12.50
2018-11-13T23:08:14.044Z,14.87
2018-11-13T23:10:43.357Z,15.63
2018-11-13T23:13:12.527Z,14.53
2018-11-13T23:15:41.727Z,14.60
2018-11-13T23:18:10.999Z,14.00
2018-11-13T23:20:40.129Z,13.90
2018-11-13T23:23:09.273Z,14.90
2018-11-13T23:25:38.392Z,14.30
2018-11-13T23:28:07.582Z,13.33
2018-11-13T23:30:36.749Z,13.17
2018-11-13T23:33:06.279Z,15.77
2018-11-13T23:35:35.207Z,14.40
2018-11-13T23:38:04.331Z,15.20
2018-11-13T23:40:33.579Z,14.00
2018-11-13T23:43:02.720Z,14.33
2018-11-13T23:45:31.972Z,15.43
2018-11-13T23:48:01.387Z,13.70
2018-11-13T23:50:30.299Z,13.20
2018-11-13T23:52:59.426Z,12.37
2018-11-13T23:55:28.518Z,10.83
2018-11-13T23:57:57.632Z,10.60
